Portada
METAR-TAF:

METAR-TAF

Aeroports :

Phitsanulok, Tailàndia

latitud: 16-46-23N, longitud: 100-16-56E, altitud: 47 m

Observació

L'informe es va fer fa 7 hores i 24 minuts, a les 13:00 UTC
Vent calma
Temperatura 26°C
Humitat 74%
Pressió 1006 hPa
Visibilitat: 6000 m

METAR: VTPP 241300Z 00000KT 6000 NSC 26/21 Q1006 NOSIG

Hora: 03:24 (20:24 UTC)

Pronòstic

L'informe es va fer fa 3 hores i 24 minuts, a les 17:00 UTC
Pronòstic vàlid del 24 a les 18 UTC al 25 a les 18 UTC
Vent 5 kt del Sud
Visibilitat: 6000 m
Evolucionant progressivament
l' 24 a les 22 UTC al 24 a les 24 UTC
Vent kt del Nord
Visibilitat: 4000 m
boirina
Evolucionant progressivament
l' 25 a les 04 UTC al 25 a les 06 UTC
Vent 5 kt del Oest/Sud-Oest
Visibilitat: 7000 m

TAF: VTPP 241700Z 2418/2518 18005KT 6000 NSC BECMG 2422/2424 00000KT 4000 BR BECMG 2504/2506 24005KT 7000 NSW

Observacions i pronòstics meteorològics de més de 4000 aeroports (METAR i TAF).

Les estacions disponibles són els punts grocs i vermells al mapa.

Posi el ratolí al punt desitjat per veure el nom de l'estació.

Feu clic per veure les observacions i els pronòstics meteorològics.

Per canviar el mapa: feu clic els botons verds amb una creu de color negre per apropar; al botó verd amb un guió per allunyar la imatge; o en les fletxes verdes per a mapes adjacents.


METAR-TAF: